Time;durP1;ratioP1;P1;durP2;ratioP2;P2;SDS_P1;SDS_P2;PMS_P1;PMS_P2;Temp;Humidity;BMP_temperature;BMP_pressure;BME280_temperature;BME280_humidity;BME280_pressure;Samples;Min_cycle;Max_cycle;Signal;HPM_P1;HPM_P2
2021/07/31 00:02:19;;;;;;;;;;;24.70;50.70;;;;;;8330039;28;19925;-47
2021/07/31 00:06:19;;;;;;;;;;;24.70;50.70;;;;;;8330172;28;20267;-47
2021/07/31 00:10:20;;;;;;;;;;;24.70;50.70;;;;;;8329693;28;20333;-47
2021/07/31 00:14:20;;;;;;;;;;;24.70;50.70;;;;;;8329381;28;19963;-47
2021/07/31 00:18:21;;;;;;;;;;;24.70;50.70;;;;;;8330265;28;20366;-47
2021/07/31 00:22:22;;;;;;;;;;;24.70;50.70;;;;;;8329594;28;20015;-49
2021/07/31 00:26:22;;;;;;;;;;;24.70;50.70;;;;;;8328908;28;20357;-47
2021/07/31 00:30:27;;;;;;;;;;;24.70;50.70;;;;;;8332948;28;20382;-47
2021/07/31 00:34:28;;;;;;;;;;;24.70;50.70;;;;;;8339610;28;19959;-47
2021/07/31 00:38:28;;;;;;;;;;;24.70;50.70;;;;;;8335634;28;19913;-47
2021/07/31 00:42:29;;;;;;;;;;;24.70;50.70;;;;;;8335414;28;19917;-47
2021/07/31 00:46:29;;;;;;;;;;;24.70;50.70;;;;;;8335076;28;19925;-46
2021/07/31 00:50:31;;;;;;;;;;;24.70;50.70;;;;;;8334720;28;20379;-48
2021/07/31 00:54:32;;;;;;;;;;;24.70;50.70;;;;;;8335546;28;19917;-48
2021/07/31 00:58:34;;;;;;;;;;;24.70;50.70;;;;;;8335095;28;20388;-50
2021/07/31 01:02:34;;;;;;;;;;;24.60;50.70;;;;;;8334574;28;19917;-52
2021/07/31 01:06:35;;;;;;;;;;;24.60;50.70;;;;;;8335163;28;20377;-51
2021/07/31 01:10:35;;;;;;;;;;;24.70;50.80;;;;;;8335450;28;19913;-52
2021/07/31 01:14:36;;;;;;;;;;;24.60;50.70;;;;;;8333949;28;19921;-51
2021/07/31 01:18:37;;;;;;;;;;;24.60;50.70;;;;;;8332875;28;19925;-50
2021/07/31 01:22:38;;;;;;;;;;;24.60;50.80;;;;;;8322625;28;19941;-51
2021/07/31 01:26:41;;;;;;;;;;;24.60;50.80;;;;;;8300711;28;19921;-51
2021/07/31 01:30:41;;;;;;;;;;;24.60;50.70;;;;;;8301903;28;19913;-48
2021/07/31 01:34:42;;;;;;;;;;;24.60;50.80;;;;;;8301156;28;19921;-48
2021/07/31 01:38:42;;;;;;;;;;;24.60;50.80;;;;;;8300438;28;19918;-49
2021/07/31 01:42:43;;;;;;;;;;;24.60;50.80;;;;;;8299822;28;20345;-48
2021/07/31 01:46:43;;;;;;;;;;;24.60;50.70;;;;;;8301362;28;19925;-49
2021/07/31 01:50:44;;;;;;;;;;;24.60;50.80;;;;;;8300154;28;19929;-49
2021/07/31 01:54:45;;;;;;;;;;;24.50;50.70;;;;;;8300541;28;19918;-48
2021/07/31 01:58:45;;;;;;;;;;;24.50;50.70;;;;;;8300428;28;19917;-48
2021/07/31 02:02:46;;;;;;;;;;;24.60;50.80;;;;;;8300476;28;19920;-48
2021/07/31 02:06:46;;;;;;;;;;;24.50;50.70;;;;;;8300362;28;20092;-48
2021/07/31 02:10:47;;;;;;;;;;;24.60;50.80;;;;;;8299797;28;19957;-49
2021/07/31 02:14:47;;;;;;;;;;;24.60;51.30;;;;;;8299406;28;19917;-46
2021/07/31 02:18:47;;;;;;;;;;;24.50;50.70;;;;;;8299669;28;19926;-47
2021/07/31 02:22:48;;;;;;;;;;;24.50;50.80;;;;;;8300569;28;19913;-46
2021/07/31 02:26:49;;;;;;;;;;;24.50;50.80;;;;;;8298879;28;19948;-46
2021/07/31 02:30:49;;;;;;;;;;;24.50;50.80;;;;;;8299528;28;20390;-46
2021/07/31 02:34:50;;;;;;;;;;;24.50;50.80;;;;;;8298769;28;20366;-46
2021/07/31 02:38:50;;;;;;;;;;;24.50;50.80;;;;;;8299718;28;19913;-46
2021/07/31 02:42:51;;;;;;;;;;;24.50;50.80;;;;;;8299163;28;19917;-46
2021/07/31 02:46:51;;;;;;;;;;;24.50;50.80;;;;;;8298601;28;19930;-46
2021/07/31 02:50:51;;;;;;;;;;;24.50;50.80;;;;;;8298770;28;19921;-46
2021/07/31 02:54:52;;;;;;;;;;;24.50;50.80;;;;;;8299000;28;19968;-45
2021/07/31 02:58:52;;;;;;;;;;;24.50;50.90;;;;;;8298716;28;19913;-47
2021/07/31 03:02:53;;;;;;;;;;;24.40;50.80;;;;;;8298416;28;19918;-46
2021/07/31 03:06:53;;;;;;;;;;;24.50;50.80;;;;;;8298467;28;19926;-47
2021/07/31 03:10:58;;;;;;;;;;;24.50;50.90;;;;;;8297725;28;19921;-47
2021/07/31 03:14:58;;;;;;;;;;;24.50;50.90;;;;;;8298844;28;19921;-47
2021/07/31 03:18:59;;;;;;;;;;;24.40;50.80;;;;;;8298210;28;19917;-47
2021/07/31 03:22:59;;;;;;;;;;;24.40;50.80;;;;;;8297685;28;19918;-47
2021/07/31 03:27:00;;;;;;;;;;;24.40;50.80;;;;;;8297717;28;19925;-46
2021/07/31 03:31:00;;;;;;;;;;;24.50;50.90;;;;;;8298758;28;19914;-46
2021/07/31 03:35:01;;;;;;;;;;;24.50;50.90;;;;;;8297287;28;19925;-48
2021/07/31 03:39:02;;;;;;;;;;;24.40;50.80;;;;;;8297659;28;19963;-51
2021/07/31 03:43:03;;;;;;;;;;;24.40;50.80;;;;;;8297877;28;19925;-50
2021/07/31 03:47:03;;;;;;;;;;;24.40;50.80;;;;;;8297292;28;19921;-47
2021/07/31 03:51:03;;;;;;;;;;;24.40;50.90;;;;;;8298153;28;19948;-48
2021/07/31 03:55:05;;;;;;;;;;;24.40;50.90;;;;;;8297467;28;19918;-47
2021/07/31 03:59:05;;;;;;;;;;;24.40;50.90;;;;;;8296907;28;19917;-47
2021/07/31 04:03:06;;;;;;;;;;;24.40;50.80;;;;;;8297254;28;20347;-48
2021/07/31 04:07:06;;;;;;;;;;;24.40;50.80;;;;;;8304512;28;19933;-47
2021/07/31 04:11:07;;;;;;;;;;;24.30;50.80;;;;;;8303440;28;19924;-48
2021/07/31 04:15:11;;;;;;;;;;;24.30;50.80;;;;;;8303786;28;19921;-48
2021/07/31 04:19:12;;;;;;;;;;;24.30;50.80;;;;;;8304368;28;19917;-47
2021/07/31 04:23:12;;;;;;;;;;;24.30;50.80;;;;;;8303536;28;20047;-46
2021/07/31 04:27:13;;;;;;;;;;;24.30;50.80;;;;;;8303204;28;19926;-47
2021/07/31 04:31:14;;;;;;;;;;;24.30;50.80;;;;;;8303137;28;20370;-47
2021/07/31 04:35:15;;;;;;;;;;;24.30;50.80;;;;;;8302580;28;19917;-46
2021/07/31 04:39:15;;;;;;;;;;;24.30;50.80;;;;;;8302597;28;20395;-46
2021/07/31 04:43:16;;;;;;;;;;;24.30;50.80;;;;;;8303486;28;20430;-47
2021/07/31 04:47:16;;;;;;;;;;;24.30;50.80;;;;;;8301950;28;19926;-49
2021/07/31 04:51:16;;;;;;;;;;;24.30;50.80;;;;;;8302303;28;19918;-47
2021/07/31 04:55:17;;;;;;;;;;;24.30;50.80;;;;;;8302224;28;19917;-47
2021/07/31 04:59:17;;;;;;;;;;;24.30;50.80;;;;;;8302260;28;19948;-47
2021/07/31 05:03:18;;;;;;;;;;;24.30;50.80;;;;;;8301968;28;19925;-47
2021/07/31 05:07:18;;;;;;;;;;;24.30;50.90;;;;;;8301893;28;20426;-46
2021/07/31 05:11:21;;;;;;;;;;;24.30;50.80;;;;;;8301401;28;20390;-48
2021/07/31 05:15:21;;;;;;;;;;;24.30;50.90;;;;;;8302079;28;20018;-48
2021/07/31 05:19:22;;;;;;;;;;;24.30;50.80;;;;;;8302195;28;20019;-47
2021/07/31 05:23:22;;;;;;;;;;;24.30;50.90;;;;;;8325039;28;19996;-47
2021/07/31 05:27:23;;;;;;;;;;;24.30;50.90;;;;;;8333930;28;19929;-47
2021/07/31 05:31:23;;;;;;;;;;;24.20;50.80;;;;;;8333953;28;19961;-46
2021/07/31 05:35:24;;;;;;;;;;;24.20;50.80;;;;;;8334187;28;19913;-46
2021/07/31 05:39:25;;;;;;;;;;;24.20;50.90;;;;;;8333732;28;19917;-46
2021/07/31 05:43:25;;;;;;;;;;;24.30;50.90;;;;;;8333491;28;20273;-47
2021/07/31 05:47:27;;;;;;;;;;;24.20;50.90;;;;;;8332976;28;19956;-47
2021/07/31 05:51:27;;;;;;;;;;;24.20;50.80;;;;;;8334098;28;20008;-47
2021/07/31 05:55:27;;;;;;;;;;;24.20;50.80;;;;;;8333163;28;19924;-47
2021/07/31 05:59:28;;;;;;;;;;;24.20;50.80;;;;;;8332644;28;19925;-48
2021/07/31 06:03:28;;;;;;;;;;;24.20;50.80;;;;;;8333126;28;20016;-48
2021/07/31 06:07:29;;;;;;;;;;;24.20;50.80;;;;;;8333402;28;20306;-48
2021/07/31 06:11:29;;;;;;;;;;;24.20;50.90;;;;;;8333016;28;20012;-48
2021/07/31 06:15:30;;;;;;;;;;;24.20;50.80;;;;;;8332591;28;19917;-49
2021/07/31 06:19:31;;;;;;;;;;;24.20;50.80;;;;;;8332504;28;19913;-45
2021/07/31 06:23:31;;;;;;;;;;;24.20;50.80;;;;;;8331825;28;19918;-47
2021/07/31 06:27:32;;;;;;;;;;;24.20;50.80;;;;;;8332313;28;19932;-48
2021/07/31 06:31:32;;;;;;;;;;;24.20;50.80;;;;;;8332158;28;19924;-47
2021/07/31 06:35:35;;;;;;;;;;;24.20;50.80;;;;;;8331392;28;19924;-47
2021/07/31 06:39:35;;;;;;;;;;;24.20;50.80;;;;;;8331774;28;19968;-47
2021/07/31 06:43:36;;;;;;;;;;;24.20;50.80;;;;;;8332606;28;19924;-47
2021/07/31 06:47:36;;;;;;;;;;;24.20;50.70;;;;;;8330853;28;19925;-47
2021/07/31 06:51:38;;;;;;;;;;;24.20;50.80;;;;;;8331379;28;20324;-47
2021/07/31 06:55:39;;;;;;;;;;;24.20;50.80;;;;;;8331394;28;20359;-48
2021/07/31 06:59:39;;;;;;;;;;;24.20;50.80;;;;;;8330772;28;19917;-48
2021/07/31 07:03:41;;;;;;;;;;;24.20;50.70;;;;;;8331971;28;19920;-50
2021/07/31 07:07:41;;;;;;;;;;;24.20;50.70;;;;;;8330833;28;19925;-51
2021/07/31 07:11:43;;;;;;;;;;;24.20;50.80;;;;;;8330374;28;19979;-48
2021/07/31 07:15:43;;;;;;;;;;;24.20;50.80;;;;;;8330746;28;19921;-49
2021/07/31 07:19:44;;;;;;;;;;;24.20;50.80;;;;;;8331407;28;19913;-48
2021/07/31 07:23:44;;;;;;;;;;;24.20;50.70;;;;;;8330068;28;19963;-49
2021/07/31 07:27:45;;;;;;;;;;;24.20;50.80;;;;;;8330588;28;20433;-48
2021/07/31 07:31:46;;;;;;;;;;;24.30;50.80;;;;;;8330359;28;19924;-48
2021/07/31 07:35:47;;;;;;;;;;;24.20;50.70;;;;;;8330039;28;19913;-50
2021/07/31 07:39:47;;;;;;;;;;;24.20;50.80;;;;;;8329958;28;19917;-49
2021/07/31 07:43:48;;;;;;;;;;;24.20;50.70;;;;;;8330222;28;19921;-47
2021/07/31 07:47:48;;;;;;;;;;;24.30;50.70;;;;;;8329780;28;20290;-48
2021/07/31 07:51:49;;;;;;;;;;;24.30;50.70;;;;;;8330040;28;19954;-49
2021/07/31 07:55:49;;;;;;;;;;;24.30;50.70;;;;;;8330126;28;20362;-49
2021/07/31 07:59:50;;;;;;;;;;;24.20;50.70;;;;;;8329953;28;19917;-51
2021/07/31 08:03:50;;;;;;;;;;;24.30;50.70;;;;;;8329614;28;19956;-52
2021/07/31 08:07:50;;;;;;;;;;;24.30;50.70;;;;;;8330177;28;19926;-50
2021/07/31 08:11:51;;;;;;;;;;;24.30;50.70;;;;;;8330358;28;19986;-47
2021/07/31 08:15:51;;;;;;;;;;;24.30;50.60;;;;;;8329746;28;19948;-48
2021/07/31 08:19:52;;;;;;;;;;;24.30;50.60;;;;;;8329091;28;19929;-48
2021/07/31 08:23:52;;;;;;;;;;;24.30;50.60;;;;;;8329805;28;20059;-48
2021/07/31 08:27:53;;;;;;;;;;;24.30;50.60;;;;;;8329533;28;19960;-49
2021/07/31 08:31:53;;;;;;;;;;;24.30;50.50;;;;;;8329882;28;20375;-48
2021/07/31 08:35:57;;;;;;;;;;;24.30;50.50;;;;;;8329289;28;19917;-48
2021/07/31 08:39:57;;;;;;;;;;;24.30;50.40;;;;;;8329515;28;20073;-48
2021/07/31 08:43:58;;;;;;;;;;;24.30;50.40;;;;;;8328808;28;19917;-48
2021/07/31 08:48:00;;;;;;;;;;;24.40;50.50;;;;;;8330030;28;19921;-48
2021/07/31 08:52:01;;;;;;;;;;;24.30;50.30;;;;;;8333371;28;20406;-48
2021/07/31 08:56:02;;;;;;;;;;;24.30;50.30;;;;;;8334532;28;19917;-48
2021/07/31 09:00:03;;;;;;;;;;;24.30;50.30;;;;;;8335257;28;19952;-47
2021/07/31 09:04:14;;;;;;;;;;;24.40;50.30;;;;;;8333932;28;19920;-50
2021/07/31 09:08:15;;;;;;;;;;;24.40;50.30;;;;;;8309333;28;19929;-47
2021/07/31 09:12:16;;;;;;;;;;;24.30;50.20;;;;;;8323782;28;19983;-47
2021/07/31 09:16:16;;;;;;;;;;;24.30;49.30;;;;;;8330474;28;19921;-46
2021/07/31 09:20:16;;;;;;;;;;;24.20;49.20;;;;;;8337559;28;19984;-46
2021/07/31 09:24:21;;;;;;;;;;;24.10;49.00;;;;;;8318402;28;19925;-44
2021/07/31 09:28:21;;;;;;;;;;;24.10;48.50;;;;;;8318089;28;19933;-44
2021/07/31 09:32:34;;;;;;;;;;;24.10;48.10;;;;;;8327931;28;20378;-43
2021/07/31 09:36:39;;;;;;;;;;;24.10;48.10;;;;;;8314162;28;19971;-45
2021/07/31 09:40:39;;;;;;;;;;;24.00;47.80;;;;;;8314638;28;20004;-47
2021/07/31 09:44:46;;;;;;;;;;;24.00;47.70;;;;;;8327743;28;20617;-46
2021/07/31 09:49:05;;;;;;;;;;;24.00;47.60;;;;;;8327640;28;19975;-46
2021/07/31 09:53:07;;;;;;;;;;;24.00;47.30;;;;;;8327085;28;19917;-46
2021/07/31 09:57:10;;;;;;;;;;;24.10;46.90;;;;;;8327198;28;19917;-46
2021/07/31 10:01:13;;;;;;;;;;;24.10;46.80;;;;;;8320754;28;19928;-47
2021/07/31 10:05:16;;;;;;;;;;;24.10;46.60;;;;;;8326467;28;19936;-47
2021/07/31 10:09:17;;;;;;;;;;;24.20;46.70;;;;;;8326658;28;19931;-45
2021/07/31 10:13:19;;;;;;;;;;;24.30;47.00;;;;;;8326834;28;19917;-42
2021/07/31 10:17:30;;;;;;;;;;;24.30;47.20;;;;;;8326416;28;19921;-42
2021/07/31 10:21:33;;;;;;;;;;;24.40;46.50;;;;;;8326358;28;19917;-42
2021/07/31 10:25:34;;;;;;;;;;;24.40;46.70;;;;;;8326463;28;19929;-43
2021/07/31 10:29:34;;;;;;;;;;;24.50;45.80;;;;;;8325704;28;19953;-43
2021/07/31 10:33:47;;;;;;;;;;;24.50;46.00;;;;;;8326294;28;19924;-44
2021/07/31 10:37:48;;;;;;;;;;;24.50;46.30;;;;;;8325746;28;19972;-43
2021/07/31 10:41:58;;;;;;;;;;;24.50;46.10;;;;;;8326051;28;20011;-42
2021/07/31 10:46:19;;;;;;;;;;;24.50;45.80;;;;;;8325764;28;19944;-44
2021/07/31 10:50:23;;;;;;;;;;;24.50;46.30;;;;;;8325325;28;19921;-44
2021/07/31 10:54:42;;;;;;;;;;;24.60;46.30;;;;;;8325704;28;19917;-44
2021/07/31 10:59:03;;;;;;;;;;;24.60;46.40;;;;;;8325510;28;20211;-43
2021/07/31 11:03:25;;;;;;;;;;;24.70;46.20;;;;;;8311886;28;19928;-44
2021/07/31 11:07:27;;;;;;;;;;;24.70;45.90;;;;;;8325355;28;20027;-43
2021/07/31 11:11:28;;;;;;;;;;;24.70;45.90;;;;;;8324569;28;19925;-44
2021/07/31 11:15:29;;;;;;;;;;;24.70;44.80;;;;;;8324846;28;20362;-45
2021/07/31 11:19:33;;;;;;;;;;;24.80;45.00;;;;;;8323425;28;19931;-44
2021/07/31 11:23:38;;;;;;;;;;;24.80;44.80;;;;;;8325286;28;19928;-43
2021/07/31 11:27:39;;;;;;;;;;;24.80;45.60;;;;;;8324917;28;19936;-44
2021/07/31 11:31:40;;;;;;;;;;;24.80;45.10;;;;;;8316746;28;19921;-44
2021/07/31 11:35:40;;;;;;;;;;;24.90;44.00;;;;;;8319358;28;20302;-44
2021/07/31 11:39:41;;;;;;;;;;;24.90;43.40;;;;;;8323661;28;19928;-46
2021/07/31 11:43:49;;;;;;;;;;;24.90;43.80;;;;;;8324330;28;19928;-45
2021/07/31 11:47:57;;;;;;;;;;;25.00;44.00;;;;;;8324411;28;19929;-45
2021/07/31 11:52:01;;;;;;;;;;;25.00;43.90;;;;;;8326029;28;19926;-44
2021/07/31 11:56:12;;;;;;;;;;;25.10;44.00;;;;;;8323700;28;19917;-45
2021/07/31 12:00:13;;;;;;;;;;;25.10;43.80;;;;;;8324755;28;19967;-45
2021/07/31 12:04:13;;;;;;;;;;;25.20;43.90;;;;;;8319659;28;19920;-45
2021/07/31 12:08:14;;;;;;;;;;;25.20;41.90;;;;;;8318591;28;20004;-45
2021/07/31 12:12:25;;;;;;;;;;;25.20;43.80;;;;;;8323934;28;20457;-45
2021/07/31 12:16:26;;;;;;;;;;;25.30;44.00;;;;;;8316384;28;20371;-45
2021/07/31 12:20:34;;;;;;;;;;;25.30;43.40;;;;;;8317907;28;20422;-45
2021/07/31 12:24:36;;;;;;;;;;;25.30;43.20;;;;;;8324647;28;20000;-45
2021/07/31 12:28:39;;;;;;;;;;;25.30;42.80;;;;;;8329066;28;21368;-44
2021/07/31 12:32:43;;;;;;;;;;;25.40;42.70;;;;;;8330075;28;19987;-44
2021/07/31 12:36:53;;;;;;;;;;;25.40;43.20;;;;;;8324146;28;19975;-44
2021/07/31 12:40:55;;;;;;;;;;;25.50;42.80;;;;;;8329383;28;19925;-45
2021/07/31 12:44:56;;;;;;;;;;;25.50;43.30;;;;;;8329833;28;20199;-44
2021/07/31 12:48:56;;;;;;;;;;;25.50;43.10;;;;;;8319381;28;19921;-47
2021/07/31 12:52:57;;;;;;;;;;;25.60;42.20;;;;;;8297131;28;20426;-43
2021/07/31 12:56:57;;;;;;;;;;;25.50;42.70;;;;;;8328323;28;19921;-46
2021/07/31 13:00:57;;;;;;;;;;;25.50;42.90;;;;;;8318525;28;20317;-45
2021/07/31 13:04:58;;;;;;;;;;;25.60;43.30;;;;;;8321617;28;19933;-45
2021/07/31 13:08:58;;;;;;;;;;;25.50;41.70;;;;;;8331057;28;19983;-44
2021/07/31 13:12:59;;;;;;;;;;;25.60;43.00;;;;;;8302886;28;19914;-44
2021/07/31 13:17:00;;;;;;;;;;;25.50;42.70;;;;;;8301410;28;19976;-45
2021/07/31 13:21:00;;;;;;;;;;;25.50;43.10;;;;;;8301735;28;19921;-45
2021/07/31 13:25:00;;;;;;;;;;;25.50;42.80;;;;;;8308779;28;20390;-45
2021/07/31 13:29:01;;;;;;;;;;;25.50;42.60;;;;;;8334647;28;20011;-45
2021/07/31 13:33:02;;;;;;;;;;;25.50;42.90;;;;;;8333807;28;19917;-45
2021/07/31 13:37:02;;;;;;;;;;;25.50;42.50;;;;;;8313120;28;19921;-45
2021/07/31 13:41:03;;;;;;;;;;;25.60;42.70;;;;;;8306490;28;20016;-44
2021/07/31 13:45:03;;;;;;;;;;;25.60;43.00;;;;;;8321008;28;19921;-45
2021/07/31 13:49:04;;;;;;;;;;;25.60;42.40;;;;;;8331413;28;20469;-45
2021/07/31 13:53:04;;;;;;;;;;;25.60;43.70;;;;;;8309264;28;20397;-46
2021/07/31 13:57:05;;;;;;;;;;;25.60;43.80;;;;;;8300833;28;19925;-44
2021/07/31 14:01:05;;;;;;;;;;;25.60;43.50;;;;;;8300615;28;19921;-44
2021/07/31 14:05:06;;;;;;;;;;;25.70;43.70;;;;;;8300655;28;19921;-44
2021/07/31 14:09:06;;;;;;;;;;;25.70;43.80;;;;;;8300706;28;19921;-44
2021/07/31 14:13:07;;;;;;;;;;;25.70;43.80;;;;;;8300527;28;19921;-44
2021/07/31 14:17:07;;;;;;;;;;;25.70;43.90;;;;;;8299505;28;19917;-45
2021/07/31 14:21:08;;;;;;;;;;;25.60;44.00;;;;;;8300718;28;19921;-45
2021/07/31 14:25:09;;;;;;;;;;;25.70;44.10;;;;;;8299642;28;20011;-45
2021/07/31 14:29:10;;;;;;;;;;;25.70;44.20;;;;;;8299312;28;20368;-45
2021/07/31 14:33:11;;;;;;;;;;;25.70;44.20;;;;;;8300204;28;19926;-44
2021/07/31 14:37:11;;;;;;;;;;;25.70;44.30;;;;;;8299574;28;19924;-44
2021/07/31 14:41:12;;;;;;;;;;;25.70;44.40;;;;;;8299603;28;20052;-44
2021/07/31 14:45:12;;;;;;;;;;;25.70;44.40;;;;;;8299149;28;19980;-44
2021/07/31 14:49:12;;;;;;;;;;;25.70;44.40;;;;;;8298800;28;19918;-44
2021/07/31 14:53:13;;;;;;;;;;;25.70;44.40;;;;;;8298463;28;19953;-44
2021/07/31 14:57:13;;;;;;;;;;;25.70;44.50;;;;;;8299815;28;20342;-46
2021/07/31 15:01:14;;;;;;;;;;;25.70;44.60;;;;;;8298660;28;19947;-45
2021/07/31 15:05:15;;;;;;;;;;;25.70;44.70;;;;;;8298081;28;19926;-45
2021/07/31 15:09:15;;;;;;;;;;;25.70;44.70;;;;;;8298298;28;20004;-44
2021/07/31 15:13:16;;;;;;;;;;;25.70;44.70;;;;;;8299034;28;19913;-45
2021/07/31 15:17:19;;;;;;;;;;;25.70;44.70;;;;;;8297758;28;19918;-44
2021/07/31 15:21:19;;;;;;;;;;;25.70;44.70;;;;;;8298256;28;19922;-46
2021/07/31 15:25:20;;;;;;;;;;;25.70;44.80;;;;;;8297984;28;19929;-44
2021/07/31 15:29:20;;;;;;;;;;;25.70;44.80;;;;;;8297724;28;20016;-44
2021/07/31 15:33:21;;;;;;;;;;;25.60;44.80;;;;;;8298486;28;19921;-45
2021/07/31 15:37:21;;;;;;;;;;;25.60;45.40;;;;;;8297954;28;19921;-46
2021/07/31 15:41:22;;;;;;;;;;;25.60;44.90;;;;;;8297098;28;20355;-44
2021/07/31 15:45:22;;;;;;;;;;;25.60;45.10;;;;;;8297435;28;19937;-45
2021/07/31 15:49:23;;;;;;;;;;;25.60;45.10;;;;;;8298215;28;19918;-45
2021/07/31 15:53:23;;;;;;;;;;;25.60;45.10;;;;;;8297114;28;19964;-44
2021/07/31 15:57:24;;;;;;;;;;;25.60;45.10;;;;;;8297374;28;20291;-44
2021/07/31 16:01:24;;;;;;;;;;;25.60;45.20;;;;;;8301140;28;19924;-44
2021/07/31 16:05:25;;;;;;;;;;;25.50;45.20;;;;;;8303758;28;20383;-44
2021/07/31 16:09:28;;;;;;;;;;;25.60;45.30;;;;;;8304512;28;20290;-45
2021/07/31 16:13:28;;;;;;;;;;;25.50;45.20;;;;;;8303861;28;19921;-44
2021/07/31 16:17:29;;;;;;;;;;;25.50;45.20;;;;;;8303171;28;20294;-44
2021/07/31 16:21:29;;;;;;;;;;;25.50;45.30;;;;;;8303458;28;19944;-44
2021/07/31 16:25:30;;;;;;;;;;;25.50;45.40;;;;;;8304090;28;19949;-44
2021/07/31 16:29:30;;;;;;;;;;;25.40;45.30;;;;;;8302977;28;20378;-44
2021/07/31 16:33:31;;;;;;;;;;;25.50;45.40;;;;;;8303353;28;19917;-44
2021/07/31 16:37:31;;;;;;;;;;;25.50;45.50;;;;;;8303113;28;19913;-44
2021/07/31 16:41:32;;;;;;;;;;;25.50;45.50;;;;;;8303236;28;19978;-44
2021/07/31 16:45:32;;;;;;;;;;;25.40;45.50;;;;;;8302754;28;19926;-44
2021/07/31 16:49:32;;;;;;;;;;;25.50;45.50;;;;;;8302683;28;19917;-44
2021/07/31 16:53:33;;;;;;;;;;;25.40;45.50;;;;;;8302189;28;19925;-44
2021/07/31 16:57:35;;;;;;;;;;;25.40;45.60;;;;;;8302313;28;19921;-44
2021/07/31 17:01:35;;;;;;;;;;;25.40;45.60;;;;;;8303013;28;19917;-45
2021/07/31 17:05:36;;;;;;;;;;;25.40;45.60;;;;;;8301430;28;19932;-44
2021/07/31 17:09:36;;;;;;;;;;;25.40;45.60;;;;;;8301897;28;19918;-45
2021/07/31 17:13:36;;;;;;;;;;;25.40;45.70;;;;;;8301481;28;20322;-44
2021/07/31 17:17:37;;;;;;;;;;;25.40;45.70;;;;;;8302082;28;19921;-44
2021/07/31 17:21:37;;;;;;;;;;;25.30;45.70;;;;;;8302006;28;20381;-46
2021/07/31 17:25:38;;;;;;;;;;;25.40;45.80;;;;;;8301478;28;20404;-45
2021/07/31 17:29:38;;;;;;;;;;;25.40;45.80;;;;;;8301462;28;19972;-44
2021/07/31 17:33:39;;;;;;;;;;;25.40;45.80;;;;;;8302063;28;19921;-46
2021/07/31 17:37:40;;;;;;;;;;;25.30;45.80;;;;;;8301386;28;20333;-44
2021/07/31 17:41:41;;;;;;;;;;;25.30;45.80;;;;;;8300886;28;19925;-44
2021/07/31 17:45:41;;;;;;;;;;;25.30;45.80;;;;;;8300864;28;19925;-45
2021/07/31 17:49:42;;;;;;;;;;;25.30;45.90;;;;;;8300977;28;19960;-44
2021/07/31 17:53:42;;;;;;;;;;;25.30;45.90;;;;;;8300813;28;19960;-45
2021/07/31 17:57:43;;;;;;;;;;;25.30;45.90;;;;;;8300536;28;19922;-45
2021/07/31 18:01:43;;;;;;;;;;;25.30;45.90;;;;;;8300326;28;20004;-44
2021/07/31 18:05:46;;;;;;;;;;;25.30;46.00;;;;;;8299134;28;20016;-44
2021/07/31 18:09:46;;;;;;;;;;;25.30;46.10;;;;;;8301102;28;19928;-44
2021/07/31 18:13:47;;;;;;;;;;;25.30;46.00;;;;;;8300238;28;19917;-44
2021/07/31 18:17:47;;;;;;;;;;;25.30;46.10;;;;;;8299850;28;19917;-45
2021/07/31 18:21:48;;;;;;;;;;;25.30;46.10;;;;;;8299686;28;19917;-44
2021/07/31 18:25:48;;;;;;;;;;;25.20;46.10;;;;;;8299895;28;19921;-44
2021/07/31 18:29:48;;;;;;;;;;;25.20;46.10;;;;;;8299797;28;19968;-44
2021/07/31 18:33:49;;;;;;;;;;;25.20;46.10;;;;;;8299400;28;20062;-45
2021/07/31 18:37:50;;;;;;;;;;;25.20;46.10;;;;;;8298800;28;19917;-44
2021/07/31 18:41:52;;;;;;;;;;;25.20;46.10;;;;;;8299088;28;19932;-44
2021/07/31 18:45:53;;;;;;;;;;;25.20;46.10;;;;;;8299893;28;19933;-43
2021/07/31 18:49:53;;;;;;;;;;;25.20;46.10;;;;;;8298661;28;20378;-43
2021/07/31 18:53:54;;;;;;;;;;;25.20;46.10;;;;;;8298796;28;19921;-45
2021/07/31 18:57:54;;;;;;;;;;;25.20;46.20;;;;;;8298900;28;20290;-43
2021/07/31 19:01:55;;;;;;;;;;;25.20;46.70;;;;;;8299092;28;19917;-45
2021/07/31 19:05:55;;;;;;;;;;;25.20;46.30;;;;;;8298491;28;19926;-43
2021/07/31 19:09:56;;;;;;;;;;;25.20;46.30;;;;;;8298395;28;20434;-43
2021/07/31 19:13:58;;;;;;;;;;;25.20;46.40;;;;;;8297887;28;19924;-44
2021/07/31 19:17:59;;;;;;;;;;;25.20;46.50;;;;;;8298503;28;19913;-43
2021/07/31 19:21:59;;;;;;;;;;;25.20;46.50;;;;;;8298782;28;19914;-42
2021/07/31 19:26:00;;;;;;;;;;;25.20;46.50;;;;;;8297554;28;20409;-43
2021/07/31 19:30:01;;;;;;;;;;;25.20;46.60;;;;;;8298182;28;19924;-42
2021/07/31 19:34:02;;;;;;;;;;;25.10;46.50;;;;;;8297796;28;20286;-43
2021/07/31 19:38:04;;;;;;;;;;;25.10;46.60;;;;;;8298304;28;20036;-44
2021/07/31 19:42:04;;;;;;;;;;;25.10;46.60;;;;;;8297897;28;19917;-43
2021/07/31 19:46:05;;;;;;;;;;;25.10;46.60;;;;;;8297711;28;19980;-43
2021/07/31 19:50:06;;;;;;;;;;;25.10;46.60;;;;;;8297302;28;20435;-43
2021/07/31 19:54:06;;;;;;;;;;;25.10;46.70;;;;;;8298166;28;19914;-42
2021/07/31 19:58:06;;;;;;;;;;;25.10;46.70;;;;;;8297395;28;19918;-43
2021/07/31 20:02:07;;;;;;;;;;;25.10;46.80;;;;;;8297106;28;19922;-43
2021/07/31 20:06:08;;;;;;;;;;;25.10;46.80;;;;;;8297621;28;20358;-43
2021/07/31 20:10:08;;;;;;;;;;;25.10;46.80;;;;;;8297266;28;19980;-44
2021/07/31 20:14:09;;;;;;;;;;;25.10;46.90;;;;;;8297749;28;19926;-44
2021/07/31 20:18:09;;;;;;;;;;;25.00;46.90;;;;;;8297454;28;19917;-42
2021/07/31 20:22:10;;;;;;;;;;;25.00;46.90;;;;;;8297111;28;19924;-43
2021/07/31 20:26:10;;;;;;;;;;;25.00;46.90;;;;;;8296628;28;20370;-43
2021/07/31 20:30:12;;;;;;;;;;;25.00;46.90;;;;;;8297834;28;20283;-44
2021/07/31 20:34:13;;;;;;;;;;;25.00;47.00;;;;;;8296916;28;19985;-43
2021/07/31 20:38:13;;;;;;;;;;;25.00;47.00;;;;;;8296581;28;19921;-43
2021/07/31 20:42:14;;;;;;;;;;;25.00;47.10;;;;;;8296674;28;19921;-43
2021/07/31 20:46:16;;;;;;;;;;;25.00;47.10;;;;;;8298941;28;19953;-44
2021/07/31 20:50:18;;;;;;;;;;;25.00;47.20;;;;;;8302649;28;19918;-43
2021/07/31 20:54:18;;;;;;;;;;;25.00;47.20;;;;;;8302408;28;19917;-43
2021/07/31 20:58:19;;;;;;;;;;;25.00;47.20;;;;;;8302637;28;19918;-43
2021/07/31 21:02:19;;;;;;;;;;;25.00;47.30;;;;;;8301862;28;19918;-43
2021/07/31 21:06:20;;;;;;;;;;;25.00;47.20;;;;;;8303082;28;19926;-44
2021/07/31 21:10:21;;;;;;;;;;;24.90;47.20;;;;;;8302258;28;20374;-43
2021/07/31 21:14:21;;;;;;;;;;;24.90;47.30;;;;;;8301996;28;20260;-43
2021/07/31 21:18:21;;;;;;;;;;;24.90;47.20;;;;;;8302002;28;19917;-45
2021/07/31 21:22:22;;;;;;;;;;;24.90;47.30;;;;;;8302592;28;20327;-43
2021/07/31 21:26:22;;;;;;;;;;;25.00;47.30;;;;;;8301148;28;19932;-43
2021/07/31 21:30:23;;;;;;;;;;;24.90;47.30;;;;;;8301783;28;19921;-43
2021/07/31 21:34:23;;;;;;;;;;;24.90;47.30;;;;;;8301483;28;19979;-44
2021/07/31 21:38:24;;;;;;;;;;;24.90;47.40;;;;;;8300918;28;20260;-44
2021/07/31 21:42:25;;;;;;;;;;;24.90;47.40;;;;;;8302033;28;19913;-43
2021/07/31 21:46:25;;;;;;;;;;;24.90;47.40;;;;;;8301019;28;19948;-43
2021/07/31 21:50:25;;;;;;;;;;;24.90;47.40;;;;;;8300571;28;20286;-43
2021/07/31 21:54:26;;;;;;;;;;;24.80;47.40;;;;;;8301144;28;20338;-43
2021/07/31 21:58:26;;;;;;;;;;;24.80;47.40;;;;;;8300244;28;19921;-43
2021/07/31 22:02:27;;;;;;;;;;;24.80;47.50;;;;;;8299936;28;19921;-43
2021/07/31 22:06:27;;;;;;;;;;;24.80;47.50;;;;;;8300736;28;19933;-43
2021/07/31 22:10:30;;;;;;;;;;;24.80;47.50;;;;;;8300326;28;19921;-43
2021/07/31 22:14:30;;;;;;;;;;;24.80;48.00;;;;;;8300516;28;19980;-43
2021/07/31 22:18:31;;;;;;;;;;;24.80;47.50;;;;;;8300331;28;19917;-43
2021/07/31 22:22:31;;;;;;;;;;;24.80;47.50;;;;;;8299900;28;19918;-43
2021/07/31 22:26:32;;;;;;;;;;;24.80;47.60;;;;;;8299284;28;19926;-43
2021/07/31 22:30:33;;;;;;;;;;;24.80;47.60;;;;;;8299933;28;20255;-44
2021/07/31 22:34:33;;;;;;;;;;;24.80;47.60;;;;;;8300324;28;19978;-43
2021/07/31 22:38:33;;;;;;;;;;;24.80;47.60;;;;;;8299126;28;19922;-43
2021/07/31 22:42:34;;;;;;;;;;;24.80;47.60;;;;;;8299648;28;19917;-45
2021/07/31 22:46:34;;;;;;;;;;;24.80;47.60;;;;;;8299211;28;19967;-48
2021/07/31 22:50:35;;;;;;;;;;;24.80;47.60;;;;;;8299381;28;19944;-44
2021/07/31 22:54:35;;;;;;;;;;;24.70;47.60;;;;;;8298899;28;19996;-47
2021/07/31 22:58:36;;;;;;;;;;;24.70;47.60;;;;;;8298807;28;19925;-45
2021/07/31 23:02:36;;;;;;;;;;;24.70;47.60;;;;;;8298656;28;20006;-44
2021/07/31 23:06:36;;;;;;;;;;;24.70;47.70;;;;;;8299126;28;19929;-44
2021/07/31 23:10:38;;;;;;;;;;;24.70;47.70;;;;;;8298177;28;19925;-45
2021/07/31 23:14:39;;;;;;;;;;;24.70;47.70;;;;;;8298080;28;19918;-44
2021/07/31 23:18:39;;;;;;;;;;;24.70;47.70;;;;;;8298365;28;19917;-44
2021/07/31 23:22:39;;;;;;;;;;;24.60;47.70;;;;;;8298350;28;19921;-44